EHFS

Vlissingen

Vlissingen, The Netherlands
METAR EHFS 180655Z AUTO 17007KT 8000 NSC 02/00 Q1024 W///H///
Observed Flight Rules
Feb-18 @ 06:55 UTC (22 minutes ago) Marginal Visual Flight Rules
Wind Visibility Clouds
170° at 7 knots 7,998 meters
  • Clear skies
Temperatures Readings
Current 2°C / 36°F
Dewpoint 0°C / 32°F
Humidity 87%
Altimeter 30.24" Hg
Pressure 1024 hPa
Elevation 32
METAR EHFS 180655Z AUTO 17007KT 8000 NSC 02/00 Q1024 W///H///
Observed Flight Rules
Feb-18 @ 06:55 UTC
(22 minutes ago)
MVFR
Wind Visibility
170° at 7 knots 7,998 meters
Clouds
  • Clear skies
Temperature Dewpoint
2°C / 36°F 0°C / 32°F
Humidity Altimeter Pressure
87% 30.24" Hg 1024 hPa